createdAt,value
2023-02-24T00:02:05.423Z,10.40
2023-02-24T00:04:38.625Z,10.50
2023-02-24T00:07:07.477Z,10.15
2023-02-24T00:09:37.671Z,10.41
2023-02-24T00:12:08.896Z,10.42
2023-02-24T00:14:40.526Z,10.32
2023-02-24T00:17:10.117Z,10.18
2023-02-24T00:19:40.815Z,10.31
2023-02-24T00:22:10.237Z,10.45
2023-02-24T00:24:38.533Z,10.39
2023-02-24T00:27:11.686Z,10.36
2023-02-24T00:29:42.256Z,10.35
2023-02-24T00:32:23.096Z,10.04
2023-02-24T00:34:52.605Z,10.03
2023-02-24T00:37:26.670Z,10.24
2023-02-24T00:39:58.715Z,10.24
2023-02-24T00:42:29.726Z,10.21
2023-02-24T00:44:57.737Z,10.26
2023-02-24T00:47:27.306Z,10.13
2023-02-24T00:49:57.096Z,10.03
2023-02-24T00:52:28.073Z,9.92
2023-02-24T00:55:04.254Z,9.97
2023-02-24T00:57:35.629Z,10.09
2023-02-24T01:00:10.264Z,10.00
2023-02-24T01:02:38.485Z,10.11
2023-02-24T01:05:09.550Z,10.04
2023-02-24T01:07:37.707Z,9.94
2023-02-24T01:10:08.794Z,9.96
2023-02-24T01:12:49.619Z,9.86
2023-02-24T01:15:20.360Z,10.03
2023-02-24T01:17:49.128Z,9.70
2023-02-24T01:20:23.691Z,9.70
2023-02-24T01:22:54.724Z,9.63
2023-02-24T01:25:25.336Z,9.68
2023-02-24T01:27:54.428Z,9.54
2023-02-24T01:30:23.102Z,9.49
2023-02-24T01:32:51.671Z,9.77
2023-02-24T01:35:21.960Z,9.74
2023-02-24T01:37:50.330Z,9.66
2023-02-24T01:40:21.893Z,9.64
2023-02-24T01:42:52.799Z,9.88
2023-02-24T01:45:28.954Z,9.86
2023-02-24T01:48:01.938Z,9.85
2023-02-24T01:50:33.971Z,9.82
2023-02-24T01:53:06.497Z,9.78
2023-02-24T01:55:39.507Z,9.83
2023-02-24T01:58:12.656Z,9.77
2023-02-24T02:00:47.689Z,9.65
2023-02-24T02:03:29.646Z,9.58
2023-02-24T02:06:08.940Z,9.59
2023-02-24T02:08:42.088Z,9.53
2023-02-24T02:11:16.625Z,9.61
2023-02-24T02:13:57.515Z,9.62
2023-02-24T02:16:44.068Z,9.61
2023-02-24T02:19:58.167Z,9.58
2023-02-24T02:22:55.941Z,9.67
2023-02-24T02:25:38.866Z,9.76
2023-02-24T02:28:34.874Z,9.85
2023-02-24T02:31:32.575Z,10.09
2023-02-24T02:34:21.267Z,10.12
2023-02-24T02:37:02.213Z,9.97
2023-02-24T02:39:43.216Z,9.95
2023-02-24T02:42:27.249Z,9.92
2023-02-24T02:45:07.703Z,10.06
2023-02-24T02:47:48.122Z,9.96
2023-02-24T02:50:29.363Z,9.96
2023-02-24T02:53:07.126Z,10.08
2023-02-24T02:55:43.549Z,9.89
2023-02-24T02:58:18.203Z,9.87
2023-02-24T03:01:01.675Z,9.86
2023-02-24T03:03:34.247Z,9.86
2023-02-24T03:06:12.041Z,9.82
2023-02-24T03:08:46.682Z,9.95
2023-02-24T03:11:22.530Z,9.92
2023-02-24T03:14:07.513Z,10.07
2023-02-24T03:16:38.011Z,10.05
2023-02-24T03:19:10.359Z,10.08
2023-02-24T03:21:42.238Z,10.02
2023-02-24T03:24:10.768Z,9.96
2023-02-24T03:26:45.518Z,9.91
2023-02-24T03:29:19.307Z,9.78
2023-02-24T03:31:56.741Z,9.97
2023-02-24T03:34:34.960Z,9.85
2023-02-24T03:37:05.276Z,10.17
2023-02-24T03:39:33.859Z,10.00
2023-02-24T03:42:08.996Z,9.89
2023-02-24T03:44:37.349Z,10.10
2023-02-24T03:47:08.036Z,10.03
2023-02-24T03:49:38.696Z,9.94
2023-02-24T03:52:21.785Z,10.00
2023-02-24T03:55:16.799Z,10.19
2023-02-24T03:58:00.241Z,9.96
2023-02-24T04:00:38.634Z,10.10
2023-02-24T04:03:18.759Z,9.94
2023-02-24T04:05:56.738Z,9.84
2023-02-24T04:08:31.617Z,9.91
2023-02-24T04:11:10.621Z,9.85
2023-02-24T04:13:43.544Z,9.89
2023-02-24T04:16:18.413Z,9.81
2023-02-24T04:18:51.852Z,9.80
2023-02-24T04:21:25.088Z,9.74
2023-02-24T04:23:58.232Z,9.77
2023-02-24T04:26:31.512Z,9.49
2023-02-24T04:28:59.790Z,9.50
2023-02-24T04:31:32.320Z,9.59
2023-02-24T04:34:00.511Z,9.57
2023-02-24T04:36:29.278Z,9.53
2023-02-24T04:38:59.714Z,9.55
2023-02-24T04:41:30.445Z,9.66
2023-02-24T04:44:00.071Z,9.61
2023-02-24T04:46:29.861Z,9.49
2023-02-24T04:48:59.797Z,9.44
2023-02-24T04:51:31.782Z,9.36
2023-02-24T04:54:04.860Z,9.30
2023-02-24T04:56:32.816Z,9.47
2023-02-24T04:59:03.189Z,9.65
2023-02-24T05:01:36.969Z,9.45
2023-02-24T05:04:08.589Z,9.42
2023-02-24T05:06:41.022Z,9.34
2023-02-24T05:09:14.355Z,9.48
2023-02-24T05:11:45.749Z,9.39
2023-02-24T05:14:16.963Z,9.80
2023-02-24T05:16:46.922Z,9.59
2023-02-24T05:19:35.409Z,9.76
2023-02-24T05:22:07.077Z,9.56
2023-02-24T05:24:36.766Z,9.45
2023-02-24T05:27:08.533Z,9.36
2023-02-24T05:29:38.675Z,9.40
2023-02-24T05:32:08.559Z,9.48
2023-02-24T05:34:41.472Z,9.45
2023-02-24T05:37:10.669Z,9.58
2023-02-24T05:39:41.004Z,9.54
2023-02-24T05:42:12.167Z,9.29
2023-02-24T05:44:40.988Z,9.38
2023-02-24T05:47:10.637Z,9.39
2023-02-24T05:49:43.866Z,9.34
2023-02-24T05:52:14.315Z,9.43
2023-02-24T05:54:48.549Z,9.26
2023-02-24T05:57:20.678Z,9.13
2023-02-24T05:59:58.715Z,9.05
2023-02-24T06:02:31.325Z,9.33
2023-02-24T06:05:01.034Z,9.37
2023-02-24T06:07:35.860Z,9.44
2023-02-24T06:10:13.423Z,9.47
2023-02-24T06:12:47.626Z,9.42
2023-02-24T06:15:16.905Z,9.42
2023-02-24T06:17:46.849Z,9.23
2023-02-24T06:20:16.052Z,9.33
2023-02-24T06:22:45.313Z,9.25
2023-02-24T06:25:15.464Z,9.31
2023-02-24T06:27:43.722Z,9.23
2023-02-24T06:30:15.359Z,9.37
2023-02-24T06:32:49.837Z,9.41
2023-02-24T06:35:32.951Z,9.00
2023-02-24T06:38:01.927Z,9.16
2023-02-24T06:40:37.739Z,9.24
2023-02-24T06:43:05.830Z,9.44
2023-02-24T06:45:36.868Z,9.28
2023-02-24T06:48:08.484Z,9.24
2023-02-24T06:50:42.219Z,9.31
2023-02-24T06:53:17.510Z,9.12
2023-02-24T06:55:49.841Z,8.99
2023-02-24T06:58:22.458Z,9.14
2023-02-24T07:00:57.687Z,9.41
2023-02-24T07:03:39.412Z,9.24
2023-02-24T07:06:22.861Z,9.24
2023-02-24T07:08:53.448Z,9.10
2023-02-24T07:11:31.426Z,9.12
2023-02-24T07:14:00.942Z,9.33
2023-02-24T07:16:31.795Z,9.38
2023-02-24T07:19:04.064Z,9.66
2023-02-24T07:21:39.641Z,9.76
2023-02-24T07:24:14.494Z,9.59
2023-02-24T07:26:51.506Z,9.96
2023-02-24T07:29:19.493Z,9.98
2023-02-24T07:31:54.961Z,9.85
2023-02-24T07:34:27.839Z,9.91
2023-02-24T07:36:58.448Z,9.82
2023-02-24T07:39:29.898Z,9.85
2023-02-24T07:42:01.988Z,9.82
2023-02-24T07:44:31.303Z,9.73
2023-02-24T07:47:00.181Z,9.77
2023-02-24T07:49:30.949Z,9.80
2023-02-24T07:52:00.622Z,9.83
2023-02-24T07:54:30.269Z,10.37
2023-02-24T07:57:01.750Z,10.66
2023-02-24T07:59:33.649Z,10.46
2023-02-24T08:02:05.079Z,10.26
2023-02-24T08:04:43.851Z,10.50
2023-02-24T08:07:18.311Z,10.44
2023-02-24T08:10:03.932Z,10.42
2023-02-24T08:12:37.627Z,10.25
2023-02-24T08:15:17.649Z,10.29
2023-02-24T08:17:55.029Z,10.38
2023-02-24T08:20:27.210Z,10.86
2023-02-24T08:23:05.462Z,11.09
2023-02-24T08:25:39.118Z,10.77
2023-02-24T08:28:11.551Z,11.16
2023-02-24T08:30:45.050Z,11.00
2023-02-24T08:33:19.364Z,11.04
2023-02-24T08:36:03.028Z,11.16
2023-02-24T08:38:44.837Z,10.80
2023-02-24T08:41:17.981Z,11.05
2023-02-24T08:43:52.679Z,11.46
2023-02-24T08:46:27.653Z,11.38
2023-02-24T08:49:02.921Z,11.66
2023-02-24T08:51:37.617Z,11.08
2023-02-24T08:54:11.536Z,11.45
2023-02-24T08:56:49.930Z,11.58
2023-02-24T08:59:37.891Z,11.08
2023-02-24T09:02:18.592Z,11.13
2023-02-24T09:04:51.429Z,11.47
2023-02-24T09:07:24.275Z,11.57
2023-02-24T09:09:58.927Z,11.53
2023-02-24T09:12:34.715Z,11.47
2023-02-24T09:15:05.903Z,11.84
2023-02-24T09:17:50.972Z,11.79
2023-02-24T09:20:56.260Z,11.19
2023-02-24T09:23:32.383Z,11.56
2023-02-24T09:26:11.322Z,11.70
2023-02-24T09:28:49.018Z,11.70
2023-02-24T09:31:38.060Z,12.15
2023-02-24T09:34:07.451Z,11.99
2023-02-24T09:36:44.893Z,12.07
2023-02-24T09:39:15.079Z,11.93
2023-02-24T09:41:59.363Z,12.00
2023-02-24T09:44:36.239Z,11.49
2023-02-24T09:47:18.949Z,11.91
2023-02-24T09:49:57.197Z,12.21
2023-02-24T09:52:40.656Z,12.52
2023-02-24T09:55:26.087Z,11.95
2023-02-24T09:58:19.856Z,11.64
2023-02-24T10:00:59.528Z,11.32
2023-02-24T10:03:42.779Z,11.66
2023-02-24T10:06:23.136Z,11.45
2023-02-24T10:08:56.532Z,11.75
2023-02-24T10:11:33.958Z,11.58
2023-02-24T10:14:07.406Z,11.95
2023-02-24T10:16:44.964Z,11.51
2023-02-24T10:19:24.299Z,11.69
2023-02-24T10:22:10.017Z,11.64
2023-02-24T10:24:47.708Z,11.51
2023-02-24T10:27:23.735Z,11.25
2023-02-24T10:30:06.281Z,11.61
2023-02-24T10:32:41.940Z,11.78
2023-02-24T10:35:17.535Z,12.21
2023-02-24T10:37:46.630Z,12.57
2023-02-24T10:40:26.646Z,12.59
2023-02-24T10:43:10.614Z,12.05
2023-02-24T10:45:45.160Z,11.90
2023-02-24T10:48:40.772Z,11.83
2023-02-24T10:51:26.517Z,12.06
2023-02-24T10:54:22.342Z,12.63
2023-02-24T10:57:08.290Z,12.85
2023-02-24T11:00:19.979Z,12.26
2023-02-24T11:03:08.057Z,12.11
2023-02-24T11:06:07.050Z,12.07
2023-02-24T11:08:40.019Z,12.17
2023-02-24T11:11:25.395Z,12.30
2023-02-24T11:14:12.451Z,12.26
2023-02-24T11:17:04.075Z,11.93
2023-02-24T11:19:36.319Z,12.41
2023-02-24T11:22:09.015Z,12.43
2023-02-24T11:24:41.782Z,12.12
2023-02-24T11:27:12.348Z,12.73
2023-02-24T11:29:53.551Z,12.97
2023-02-24T11:32:40.003Z,12.87
2023-02-24T11:35:22.797Z,12.68
2023-02-24T11:38:05.299Z,12.58
2023-02-24T11:40:42.722Z,12.41
2023-02-24T11:43:18.678Z,12.93
2023-02-24T11:45:49.999Z,12.07
2023-02-24T11:48:32.933Z,12.50
2023-02-24T11:51:07.381Z,12.60
2023-02-24T11:53:38.497Z,12.20
2023-02-24T11:56:13.762Z,12.20
2023-02-24T11:58:47.490Z,11.90
2023-02-24T12:01:24.531Z,12.23
2023-02-24T12:04:02.934Z,12.38
2023-02-24T12:06:37.012Z,12.02
2023-02-24T12:09:14.160Z,12.15
2023-02-24T12:11:56.320Z,12.05
2023-02-24T12:14:34.950Z,12.50
2023-02-24T12:17:14.321Z,12.25
2023-02-24T12:19:53.720Z,12.10
2023-02-24T12:22:26.747Z,12.22
2023-02-24T12:24:55.760Z,12.09
2023-02-24T12:27:39.576Z,11.47
2023-02-24T12:30:48.878Z,11.60
2023-02-24T12:33:31.457Z,11.70
2023-02-24T12:36:06.348Z,11.85
2023-02-24T12:38:54.148Z,11.72
2023-02-24T12:42:02.722Z,11.68
2023-02-24T12:44:49.981Z,11.58
2023-02-24T12:47:27.593Z,11.44
2023-02-24T12:50:17.949Z,11.61
2023-02-24T12:53:03.240Z,11.28
2023-02-24T12:55:42.446Z,11.13
2023-02-24T12:58:26.498Z,11.35
2023-02-24T13:01:21.663Z,11.57
2023-02-24T13:04:17.509Z,11.47
2023-02-24T13:06:58.149Z,11.10
2023-02-24T13:09:35.914Z,11.01
2023-02-24T13:12:12.505Z,11.06
2023-02-24T13:14:45.739Z,11.14
2023-02-24T13:17:21.519Z,10.96
2023-02-24T13:19:52.271Z,11.07
2023-02-24T13:22:33.442Z,11.18
2023-02-24T13:25:13.935Z,11.28
2023-02-24T13:27:47.901Z,11.48
2023-02-24T13:30:33.597Z,11.08
2023-02-24T13:33:06.502Z,11.11
2023-02-24T13:35:37.581Z,11.26
2023-02-24T13:38:27.166Z,11.25
2023-02-24T13:41:08.449Z,11.52
2023-02-24T13:43:37.244Z,11.54
2023-02-24T13:46:19.787Z,11.39
2023-02-24T13:49:05.819Z,11.18
2023-02-24T13:51:54.647Z,11.39
2023-02-24T13:54:56.795Z,11.39
2023-02-24T13:57:46.044Z,11.37
2023-02-24T14:00:25.121Z,11.36
2023-02-24T14:02:53.764Z,11.39
2023-02-24T14:05:31.093Z,11.43
2023-02-24T14:08:05.832Z,11.20
2023-02-24T14:10:39.127Z,11.40
2023-02-24T14:13:18.955Z,11.25
2023-02-24T14:15:49.405Z,11.14
2023-02-24T14:18:22.007Z,10.92
2023-02-24T14:20:54.536Z,10.87
2023-02-24T14:23:26.892Z,10.70
2023-02-24T14:25:57.564Z,10.65
2023-02-24T14:28:31.336Z,10.84
2023-02-24T14:31:01.975Z,10.50
2023-02-24T14:33:40.097Z,10.61
2023-02-24T14:36:19.512Z,10.67
2023-02-24T14:38:48.585Z,10.56
2023-02-24T14:41:23.845Z,10.60
2023-02-24T14:43:53.151Z,10.51
2023-02-24T14:46:24.551Z,10.65
2023-02-24T14:49:00.434Z,10.46
2023-02-24T14:51:35.874Z,10.31
2023-02-24T14:54:15.452Z,10.46
2023-02-24T14:56:52.056Z,10.46
2023-02-24T14:59:33.448Z,10.27
2023-02-24T15:02:03.998Z,10.19
2023-02-24T15:04:36.718Z,10.33
2023-02-24T15:07:10.925Z,10.34
2023-02-24T15:09:47.373Z,10.33
2023-02-24T15:12:27.439Z,10.16
2023-02-24T15:15:01.973Z,10.38
2023-02-24T15:17:34.647Z,10.24
2023-02-24T15:20:05.837Z,10.12
2023-02-24T15:22:41.352Z,10.25
2023-02-24T15:25:37.238Z,10.17
2023-02-24T15:28:27.050Z,10.24
2023-02-24T15:31:05.634Z,10.00
2023-02-24T15:33:42.429Z,10.01
2023-02-24T15:36:26.432Z,9.94
2023-02-24T15:39:07.848Z,9.66
2023-02-24T15:41:41.439Z,9.83
2023-02-24T15:44:30.575Z,9.49
2023-02-24T15:47:00.239Z,9.66
2023-02-24T15:49:32.830Z,9.59
2023-02-24T15:52:05.550Z,9.55
2023-02-24T15:54:55.475Z,9.58
2023-02-24T15:57:28.122Z,9.68
2023-02-24T15:59:56.700Z,9.80
2023-02-24T16:02:32.086Z,9.85
2023-02-24T16:05:06.995Z,10.00
2023-02-24T16:07:41.912Z,9.69
2023-02-24T16:10:23.423Z,9.81
2023-02-24T16:13:16.393Z,9.59
2023-02-24T16:15:50.070Z,9.66
2023-02-24T16:18:23.095Z,9.65
2023-02-24T16:20:59.666Z,9.41
2023-02-24T16:23:34.056Z,9.47
2023-02-24T16:26:09.744Z,9.44
2023-02-24T16:28:40.566Z,9.24
2023-02-24T16:31:14.532Z,9.04
2023-02-24T16:33:54.506Z,8.83
2023-02-24T16:36:35.061Z,8.59
2023-02-24T16:39:07.981Z,8.53
2023-02-24T16:41:37.455Z,8.33
2023-02-24T16:44:10.967Z,8.22
2023-02-24T16:46:42.296Z,8.05
2023-02-24T16:49:18.067Z,8.09
2023-02-24T16:51:47.439Z,7.86
2023-02-24T16:54:29.650Z,7.93
2023-02-24T16:56:59.961Z,7.80
2023-02-24T16:59:31.960Z,7.60
2023-02-24T17:02:02.273Z,7.62
2023-02-24T17:04:32.344Z,7.55
2023-02-24T17:07:01.258Z,7.47
2023-02-24T17:09:36.454Z,7.53
2023-02-24T17:12:08.720Z,7.37
2023-02-24T17:14:39.401Z,7.33
2023-02-24T17:17:10.640Z,7.25
2023-02-24T17:19:39.475Z,7.17
2023-02-24T17:22:10.587Z,7.30
2023-02-24T17:24:45.474Z,7.28
2023-02-24T17:27:14.847Z,7.20
2023-02-24T17:29:43.080Z,7.15
2023-02-24T17:32:19.774Z,7.06
2023-02-24T17:34:48.218Z,7.12
2023-02-24T17:37:17.373Z,7.14
2023-02-24T17:39:46.199Z,7.04
2023-02-24T17:42:16.286Z,7.07
2023-02-24T17:44:46.359Z,7.20
2023-02-24T17:47:14.674Z,7.08
2023-02-24T17:49:43.802Z,7.07
2023-02-24T17:52:14.050Z,7.16
2023-02-24T17:54:43.290Z,7.23
2023-02-24T17:57:14.143Z,7.05
2023-02-24T17:59:48.914Z,7.10
2023-02-24T18:02:18.599Z,7.06
2023-02-24T18:04:47.670Z,7.04
2023-02-24T18:07:18.766Z,6.99
2023-02-24T18:09:49.525Z,6.97
2023-02-24T18:12:19.332Z,7.00
2023-02-24T18:14:59.027Z,6.91
2023-02-24T18:17:30.515Z,6.89
2023-02-24T18:19:58.650Z,7.00
2023-02-24T18:22:27.009Z,7.02
2023-02-24T18:24:55.543Z,6.96
2023-02-24T18:27:23.624Z,6.90
2023-02-24T18:29:52.998Z,6.93
2023-02-24T18:32:21.770Z,6.96
2023-02-24T18:34:50.479Z,7.07
2023-02-24T18:37:24.129Z,7.06
2023-02-24T18:39:56.989Z,7.12
2023-02-24T18:42:31.785Z,6.98
2023-02-24T18:45:01.246Z,6.99
2023-02-24T18:47:32.979Z,7.02
2023-02-24T18:50:01.124Z,6.98
2023-02-24T18:52:29.161Z,6.86
2023-02-24T18:54:57.656Z,6.90
2023-02-24T18:57:28.741Z,6.86
2023-02-24T18:59:57.895Z,6.90
2023-02-24T19:02:31.804Z,6.96
2023-02-24T19:05:00.245Z,6.90
2023-02-24T19:07:36.872Z,6.83
2023-02-24T19:10:08.456Z,6.95
2023-02-24T19:12:40.336Z,6.94
2023-02-24T19:15:10.611Z,6.85
2023-02-24T19:17:41.491Z,6.97
2023-02-24T19:20:17.513Z,7.04
2023-02-24T19:22:46.194Z,6.88
2023-02-24T19:25:15.270Z,6.93
2023-02-24T19:27:55.098Z,6.91
2023-02-24T19:30:23.195Z,6.85
2023-02-24T19:32:52.960Z,6.83
2023-02-24T19:35:22.218Z,6.82
2023-02-24T19:37:52.361Z,6.95
2023-02-24T19:40:22.132Z,6.93
2023-02-24T19:42:51.821Z,6.99
2023-02-24T19:45:20.365Z,6.92
2023-02-24T19:47:49.280Z,6.98
2023-02-24T19:50:19.431Z,7.00
2023-02-24T19:52:47.469Z,6.97
2023-02-24T19:55:18.472Z,6.95
2023-02-24T19:57:47.237Z,6.94
2023-02-24T20:00:20.918Z,6.99
2023-02-24T20:02:49.474Z,6.99
2023-02-24T20:05:19.304Z,7.04
2023-02-24T20:07:49.516Z,7.05
2023-02-24T20:10:19.012Z,6.95
2023-02-24T20:12:48.031Z,6.99
2023-02-24T20:15:16.727Z,6.98
2023-02-24T20:17:45.723Z,6.76
2023-02-24T20:20:14.041Z,6.82
2023-02-24T20:22:45.702Z,6.86
2023-02-24T20:25:17.577Z,6.79
2023-02-24T20:27:46.770Z,6.73
2023-02-24T20:30:17.542Z,6.76
2023-02-24T20:32:46.988Z,6.75
2023-02-24T20:35:15.954Z,6.73
2023-02-24T20:37:45.336Z,6.86
2023-02-24T20:40:14.000Z,6.74
2023-02-24T20:42:42.065Z,6.78
2023-02-24T20:45:12.306Z,6.77
2023-02-24T20:47:40.831Z,6.76
2023-02-24T20:50:11.411Z,6.83
2023-02-24T20:52:40.054Z,6.75
2023-02-24T20:55:10.608Z,6.77
2023-02-24T20:57:39.228Z,6.83
2023-02-24T21:00:08.227Z,6.76
2023-02-24T21:02:36.526Z,6.69
2023-02-24T21:05:04.769Z,6.69
2023-02-24T21:07:40.896Z,6.76
2023-02-24T21:10:12.811Z,6.90
2023-02-24T21:12:42.251Z,7.01
2023-02-24T21:15:12.569Z,7.19
2023-02-24T21:17:41.026Z,7.14
2023-02-24T21:20:11.993Z,7.21
2023-02-24T21:22:40.643Z,7.26
2023-02-24T21:25:12.523Z,7.31
2023-02-24T21:27:43.002Z,7.32
2023-02-24T21:30:14.026Z,7.25
2023-02-24T21:32:47.683Z,7.25
2023-02-24T21:35:16.130Z,7.20
2023-02-24T21:37:46.118Z,7.20
2023-02-24T21:40:17.971Z,7.07
2023-02-24T21:42:47.158Z,6.97
2023-02-24T21:45:16.583Z,6.78
2023-02-24T21:47:46.864Z,6.88
2023-02-24T21:50:17.104Z,6.96
2023-02-24T21:52:46.959Z,6.87
2023-02-24T21:55:20.031Z,6.86
2023-02-24T21:57:48.277Z,6.94
2023-02-24T22:00:24.742Z,6.78
2023-02-24T22:02:56.254Z,6.73
2023-02-24T22:05:26.091Z,6.76
2023-02-24T22:07:57.020Z,6.91
2023-02-24T22:10:28.619Z,6.94
2023-02-24T22:12:57.807Z,6.95
2023-02-24T22:15:26.847Z,7.05
2023-02-24T22:17:55.253Z,6.90
2023-02-24T22:20:28.996Z,6.83
2023-02-24T22:22:57.388Z,6.73
2023-02-24T22:25:28.120Z,6.63
2023-02-24T22:28:01.600Z,6.51
2023-02-24T22:30:34.830Z,6.41
2023-02-24T22:33:04.298Z,6.36
2023-02-24T22:35:34.794Z,6.23
2023-02-24T22:38:05.423Z,6.24
2023-02-24T22:40:34.991Z,6.13
2023-02-24T22:43:08.891Z,6.22
2023-02-24T22:45:37.148Z,6.20
2023-02-24T22:48:05.785Z,6.40
2023-02-24T22:50:33.758Z,6.35
2023-02-24T22:53:03.657Z,6.47
2023-02-24T22:55:34.052Z,6.51
2023-02-24T22:58:03.936Z,6.54
2023-02-24T23:00:32.074Z,6.56
2023-02-24T23:02:59.932Z,6.46
2023-02-24T23:05:29.975Z,6.44
2023-02-24T23:07:57.997Z,6.33
2023-02-24T23:10:31.139Z,6.16
2023-02-24T23:13:01.274Z,6.09
2023-02-24T23:15:29.485Z,6.02
2023-02-24T23:18:04.796Z,6.03
2023-02-24T23:20:32.717Z,5.96
2023-02-24T23:23:02.313Z,5.86
2023-02-24T23:25:31.041Z,5.82
2023-02-24T23:27:59.391Z,5.97
2023-02-24T23:30:30.921Z,5.99
2023-02-24T23:32:58.923Z,6.06
2023-02-24T23:35:28.293Z,5.94
2023-02-24T23:37:56.133Z,5.87
2023-02-24T23:40:26.231Z,5.85
2023-02-24T23:42:57.546Z,6.09
2023-02-24T23:45:28.636Z,5.90
2023-02-24T23:47:59.120Z,5.95
2023-02-24T23:50:28.902Z,6.00
2023-02-24T23:52:57.929Z,5.95
2023-02-24T23:55:31.740Z,5.96
2023-02-24T23:57:59.525Z,6.00
